createdAt,value
2022-11-15T20:13:37.445Z,24.62
2022-11-15T20:14:38.289Z,24.67
2022-11-15T20:15:39.766Z,24.67
2022-11-15T20:16:39.004Z,24.62
2022-11-15T20:17:38.234Z,24.62
2022-11-15T20:18:38.958Z,24.57
2022-11-15T20:19:40.034Z,24.52
2022-11-15T20:20:38.234Z,24.52
2022-11-15T20:21:38.202Z,24.57
2022-11-15T20:24:16.514Z,24.57
2022-11-15T20:25:06.813Z,24.50
2022-11-15T20:26:06.828Z,24.50
2022-11-15T20:27:06.794Z,24.55
2022-11-15T20:28:07.518Z,24.61
2022-11-15T20:29:06.745Z,24.60
2022-11-15T20:30:06.758Z,24.58
2022-11-15T20:31:07.332Z,24.52
2022-11-15T20:32:07.284Z,24.45
2022-11-15T20:33:06.737Z,24.31
2022-11-15T20:34:06.712Z,24.30
2022-11-15T20:35:06.821Z,24.22
2022-11-15T20:36:06.671Z,24.18
2022-11-15T20:37:10.096Z,24.03
2022-11-15T20:38:06.668Z,23.87
2022-11-15T20:39:06.667Z,23.88
2022-11-15T20:40:06.671Z,23.97
2022-11-15T20:41:06.618Z,24.05
2022-11-15T20:42:08.058Z,24.09
2022-11-15T20:43:07.525Z,24.12
2022-11-15T20:44:06.577Z,24.20
2022-11-15T20:45:07.284Z,24.16
2022-11-15T20:46:06.559Z,24.12
2022-11-15T20:47:06.571Z,24.02
2022-11-15T20:48:06.566Z,23.85
2022-11-15T20:49:06.558Z,23.72
2022-11-15T20:50:35.432Z,23.70
2022-11-15T20:51:06.546Z,23.66
2022-11-15T20:52:06.475Z,23.60
2022-11-15T20:53:09.318Z,23.50
2022-11-15T20:54:06.478Z,23.46
2022-11-15T20:55:06.473Z,23.47
2022-11-15T20:56:07.316Z,23.48
2022-11-15T20:57:06.443Z,23.47
2022-11-15T20:58:06.405Z,23.43
2022-11-15T20:59:08.988Z,23.38
2022-11-15T21:00:07.427Z,23.36
2022-11-15T21:01:09.071Z,23.39
2022-11-15T21:02:06.508Z,23.36
2022-11-15T21:03:06.422Z,23.33
2022-11-15T21:04:07.370Z,23.36
2022-11-15T21:05:07.316Z,23.36
2022-11-15T21:06:07.325Z,23.32
2022-11-15T21:07:07.166Z,23.33
2022-11-15T21:08:06.326Z,23.31
2022-11-15T21:09:08.304Z,23.28
2022-11-15T21:10:06.311Z,23.32
2022-11-15T21:11:06.876Z,23.35
2022-11-15T21:12:06.275Z,23.36
2022-11-15T21:13:07.745Z,23.32
2022-11-15T21:14:09.271Z,23.23
2022-11-15T21:15:06.213Z,23.15
2022-11-15T21:16:06.325Z,23.01
2022-11-15T21:17:06.495Z,22.91
2022-11-15T21:18:06.834Z,22.80
2022-11-15T21:19:08.088Z,22.83
2022-11-15T21:20:06.217Z,22.83
2022-11-15T21:21:06.197Z,22.80
2022-11-15T21:22:06.165Z,22.77
2022-11-15T21:23:06.193Z,22.72
2022-11-15T21:24:06.125Z,22.75
2022-11-15T21:25:06.131Z,22.72
2022-11-15T21:26:06.111Z,22.68
2022-11-15T21:27:06.844Z,22.47
2022-11-15T21:28:06.879Z,22.46
2022-11-15T21:29:06.075Z,22.47
2022-11-15T21:30:06.043Z,22.55
2022-11-15T21:31:06.126Z,22.60
2022-11-15T21:32:07.251Z,22.60
2022-11-15T21:33:06.062Z,22.60
2022-11-15T21:34:06.891Z,22.58
2022-11-15T21:35:06.042Z,22.58
2022-11-15T21:36:06.016Z,22.52
2022-11-15T21:37:08.315Z,22.46
2022-11-15T21:38:05.996Z,22.47
2022-11-15T21:39:06.000Z,22.47
2022-11-15T21:40:05.980Z,22.57
2022-11-15T21:41:05.999Z,22.62
2022-11-15T21:42:05.933Z,22.64
2022-11-15T21:43:05.892Z,22.58
2022-11-15T21:44:06.710Z,22.55
2022-11-15T21:45:07.772Z,22.52
2022-11-15T21:46:05.925Z,22.54
2022-11-15T21:47:07.486Z,22.57
2022-11-15T21:48:05.919Z,22.49
2022-11-15T21:49:07.029Z,22.47
2022-11-15T21:50:05.852Z,22.46
2022-11-15T21:51:05.853Z,22.45
2022-11-15T21:52:12.325Z,22.40
2022-11-15T21:53:05.851Z,22.37
2022-11-15T21:54:06.713Z,22.39
2022-11-15T21:55:06.368Z,22.39
2022-11-15T21:56:07.523Z,22.42
2022-11-15T21:57:05.778Z,22.43
2022-11-15T21:58:07.679Z,22.31
2022-11-15T21:59:05.741Z,22.21
2022-11-15T22:00:06.473Z,22.12
2022-11-15T22:01:08.680Z,22.06
2022-11-15T22:02:05.720Z,21.99
2022-11-15T22:03:06.362Z,21.92
2022-11-15T22:04:12.990Z,21.94
2022-11-15T22:05:08.027Z,21.96
2022-11-15T22:06:05.670Z,21.96
2022-11-15T22:07:05.744Z,21.94
2022-11-15T22:08:05.630Z,21.83
2022-11-15T22:09:08.242Z,21.82
2022-11-15T22:10:06.556Z,21.79
2022-11-15T22:11:05.599Z,21.69
2022-11-15T22:12:07.399Z,21.64
2022-11-15T22:13:05.614Z,21.69
2022-11-15T22:14:05.572Z,21.72
2022-11-15T22:15:06.689Z,21.74
2022-11-15T22:16:05.593Z,21.77
2022-11-15T22:17:05.569Z,21.80
2022-11-15T22:18:05.538Z,21.80
2022-11-15T22:19:05.504Z,21.74
2022-11-15T22:20:23.116Z,21.72
2022-11-15T22:21:06.351Z,21.65
2022-11-15T22:22:10.116Z,21.65
2022-11-15T22:23:43.400Z,21.68
2022-11-15T22:24:06.324Z,21.68
2022-11-15T22:25:05.655Z,21.62
2022-11-15T22:26:06.244Z,21.58
2022-11-15T22:27:05.440Z,21.49
2022-11-15T22:28:05.408Z,21.62
2022-11-15T22:29:05.388Z,21.64
2022-11-15T22:30:05.340Z,21.62
2022-11-15T22:31:05.384Z,21.61
2022-11-15T22:32:05.373Z,21.53
2022-11-15T22:33:07.167Z,21.47
2022-11-15T22:34:18.385Z,21.43
2022-11-15T22:37:53.483Z,21.42
2022-11-15T22:38:54.324Z,21.42
2022-11-15T22:40:01.301Z,21.43
2022-11-15T22:40:55.289Z,21.46
2022-11-15T22:41:53.763Z,21.47
2022-11-15T22:42:54.726Z,21.44
2022-11-15T22:43:56.026Z,21.49
2022-11-15T22:44:54.543Z,21.50
2022-11-15T22:46:05.145Z,21.54
2022-11-15T22:46:53.745Z,21.53
2022-11-15T22:47:54.361Z,21.46
2022-11-15T22:48:58.582Z,21.34
2022-11-15T22:49:53.703Z,21.25
2022-11-15T22:50:53.727Z,21.25
2022-11-15T22:53:09.026Z,21.25
2022-11-15T22:54:09.205Z,21.22
2022-11-15T22:55:10.101Z,21.25
2022-11-15T22:56:10.694Z,21.27
2022-11-15T22:57:12.071Z,21.29
2022-11-15T22:58:09.934Z,21.31
2022-11-15T22:59:13.293Z,21.27
2022-11-15T23:00:11.439Z,21.24
2022-11-15T23:01:09.825Z,21.27
2022-11-15T23:02:15.320Z,21.29
2022-11-15T23:03:10.663Z,21.27
2022-11-15T23:04:09.811Z,21.25
2022-11-15T23:05:09.040Z,21.28
2022-11-15T23:06:09.101Z,21.16
2022-11-15T23:07:14.007Z,21.10
2022-11-15T23:08:13.730Z,21.10
2022-11-15T23:09:12.813Z,20.99
2022-11-15T23:10:13.483Z,20.98
2022-11-15T23:11:09.006Z,21.01
2022-11-15T23:12:12.311Z,21.04
2022-11-15T23:13:11.484Z,21.12
2022-11-15T23:14:13.483Z,21.10
2022-11-15T23:15:33.502Z,21.10
2022-11-15T23:16:10.001Z,21.07
2022-11-15T23:17:09.699Z,21.09
2022-11-15T23:18:18.783Z,21.09
2022-11-15T23:19:10.635Z,21.13
2022-11-15T23:20:42.048Z,21.21
2022-11-15T23:21:09.044Z,21.24
2022-11-15T23:22:09.661Z,21.25
2022-11-15T23:23:09.760Z,21.22
2022-11-15T23:24:12.751Z,21.28
2022-11-15T23:25:08.831Z,21.27
2022-11-15T23:26:10.725Z,21.24
2022-11-15T23:27:08.813Z,21.19
2022-11-15T23:28:10.804Z,21.14
2022-11-15T23:29:12.070Z,21.13
2022-11-15T23:30:08.811Z,21.10
2022-11-15T23:31:08.776Z,21.03
2022-11-15T23:32:08.772Z,20.80
2022-11-15T23:33:18.468Z,20.73
2022-11-15T23:34:22.489Z,20.74
2022-11-15T23:35:10.280Z,20.79
2022-11-15T23:36:09.507Z,20.85
2022-11-15T23:37:08.678Z,20.88
2022-11-15T23:38:08.690Z,20.85
2022-11-15T23:39:08.669Z,20.88
2022-11-15T23:40:10.587Z,20.92
2022-11-15T23:41:09.820Z,20.92
2022-11-15T23:42:10.098Z,20.92
2022-11-15T23:43:08.624Z,20.94
2022-11-15T23:44:09.821Z,20.92
2022-11-15T23:45:08.640Z,20.89
2022-11-15T23:46:08.587Z,20.87
2022-11-15T23:47:08.593Z,20.87
2022-11-15T23:48:08.635Z,20.87
2022-11-15T23:49:08.541Z,20.89
2022-11-15T23:50:08.568Z,20.89
2022-11-15T23:51:08.539Z,20.89
2022-11-15T23:52:08.515Z,20.94
2022-11-15T23:53:09.533Z,20.97
2022-11-15T23:54:10.280Z,20.99
2022-11-15T23:56:37.870Z,20.95
2022-11-15T23:57:10.575Z,20.95
2022-11-15T23:57:43.571Z,20.99
2022-11-15T23:58:44.587Z,20.98
2022-11-15T23:59:47.036Z,20.99
